createdAt,value
2019-05-29T00:01:12.158Z,4.40
2019-05-29T00:03:41.084Z,4.93
2019-05-29T00:06:14.351Z,6.80
2019-05-29T00:08:49.621Z,7.03
2019-05-29T00:11:24.851Z,5.97
2019-05-29T00:13:56.112Z,6.50
2019-05-29T00:16:30.110Z,11.30
2019-05-29T00:19:03.819Z,7.43
2019-05-29T00:21:36.862Z,4.87
2019-05-29T00:24:08.358Z,5.50
2019-05-29T00:26:42.174Z,6.20
2019-05-29T00:29:13.942Z,5.10
2019-05-29T00:31:47.199Z,6.73
2019-05-29T00:34:21.079Z,5.27
2019-05-29T00:36:54.263Z,5.47
2019-05-29T00:39:26.005Z,6.93
2019-05-29T00:41:59.243Z,8.57
2019-05-29T00:44:34.628Z,7.13
2019-05-29T00:47:09.732Z,6.47
2019-05-29T00:49:44.487Z,6.03
2019-05-29T00:52:18.293Z,5.30
2019-05-29T00:54:51.279Z,6.23
2019-05-29T00:57:23.327Z,7.37
2019-05-29T00:59:57.306Z,6.03
2019-05-29T01:02:29.306Z,6.53
2019-05-29T01:05:03.328Z,6.60
2019-05-29T01:07:35.483Z,6.60
2019-05-29T01:10:08.810Z,7.60
2019-05-29T01:12:41.491Z,7.53
2019-05-29T01:15:15.843Z,11.40
2019-05-29T01:17:48.783Z,10.77
2019-05-29T01:20:22.248Z,10.13
2019-05-29T01:22:56.311Z,6.70
2019-05-29T01:25:29.494Z,8.10
2019-05-29T01:28:04.036Z,7.20
2019-05-29T01:30:35.528Z,7.33
2019-05-29T01:33:08.461Z,6.50
2019-05-29T01:35:41.474Z,8.53
2019-05-29T01:38:17.223Z,7.93
2019-05-29T01:40:51.518Z,8.13
2019-05-29T01:43:25.167Z,9.20
2019-05-29T01:45:58.319Z,8.83
2019-05-29T01:48:29.537Z,9.03
2019-05-29T01:51:03.452Z,10.70
2019-05-29T01:53:37.551Z,13.70
2019-05-29T01:56:10.666Z,9.43
2019-05-29T01:58:47.030Z,11.70
2019-05-29T02:01:19.945Z,9.57
2019-05-29T02:03:52.530Z,10.33
2019-05-29T02:06:25.923Z,9.63
2019-05-29T02:09:01.377Z,17.70
2019-05-29T02:11:32.679Z,8.77
2019-05-29T02:14:06.606Z,11.23
2019-05-29T02:16:38.516Z,11.37
2019-05-29T02:19:11.541Z,12.43
2019-05-29T02:21:44.727Z,10.60
2019-05-29T02:24:19.000Z,11.37
2019-05-29T02:26:53.559Z,9.37
2019-05-29T02:29:26.898Z,12.10
2019-05-29T02:31:59.763Z,14.83
2019-05-29T02:34:31.153Z,12.00
2019-05-29T02:37:04.904Z,10.50
2019-05-29T02:39:39.910Z,13.47
2019-05-29T02:42:13.653Z,14.67
2019-05-29T02:44:47.470Z,11.17
2019-05-29T02:47:21.558Z,18.93
2019-05-29T02:49:56.796Z,11.43
2019-05-29T02:52:30.751Z,16.90
2019-05-29T02:55:03.937Z,19.20
2019-05-29T02:57:37.771Z,17.43
2019-05-29T03:00:12.140Z,14.73
2019-05-29T03:02:45.547Z,14.43
2019-05-29T03:05:21.936Z,16.93
2019-05-29T03:07:56.003Z,16.17
2019-05-29T03:10:28.849Z,13.10
2019-05-29T03:13:02.940Z,13.03
2019-05-29T03:15:34.968Z,14.20
2019-05-29T03:18:08.538Z,14.87
2019-05-29T03:20:42.494Z,12.53
2019-05-29T03:23:16.016Z,14.43
2019-05-29T03:25:51.055Z,14.03
2019-05-29T03:28:23.098Z,13.97
2019-05-29T03:30:56.084Z,14.93
2019-05-29T03:33:38.117Z,16.33
2019-05-29T03:36:02.096Z,13.83
2019-05-29T03:38:35.250Z,14.17
2019-05-29T03:41:08.283Z,17.60
2019-05-29T03:43:41.254Z,14.83
2019-05-29T03:46:29.124Z,16.87
2019-05-29T03:48:49.257Z,14.50
2019-05-29T03:51:24.780Z,16.47
2019-05-29T03:53:57.995Z,13.90
2019-05-29T03:56:32.561Z,18.17
2019-05-29T03:59:05.687Z,16.33
2019-05-29T04:01:38.677Z,17.97
2019-05-29T04:04:11.177Z,18.13
2019-05-29T04:06:47.296Z,15.40
2019-05-29T04:09:37.726Z,14.27
2019-05-29T04:12:11.190Z,14.67
2019-05-29T04:14:42.888Z,19.50
2019-05-29T04:17:14.910Z,16.90
2019-05-29T04:19:48.494Z,18.07
2019-05-29T04:22:25.699Z,17.80
2019-05-29T04:24:58.325Z,16.27
2019-05-29T04:27:34.256Z,16.27
2019-05-29T04:30:09.260Z,16.17
2019-05-29T04:32:41.246Z,16.60
2019-05-29T04:35:13.427Z,15.13
2019-05-29T04:37:48.387Z,18.30
2019-05-29T04:40:23.548Z,21.23
2019-05-29T04:42:56.849Z,16.50
2019-05-29T04:45:30.412Z,16.03
2019-05-29T04:48:02.406Z,16.03
2019-05-29T04:50:37.608Z,19.03
2019-05-29T04:53:08.748Z,19.40
2019-05-29T04:55:41.728Z,13.27
2019-05-29T04:58:17.186Z,14.63
2019-05-29T05:00:58.505Z,16.97
2019-05-29T05:03:22.423Z,13.93
2019-05-29T05:05:56.656Z,21.57
2019-05-29T05:08:29.459Z,15.80
2019-05-29T05:11:04.625Z,16.77
2019-05-29T05:13:39.460Z,15.43
2019-05-29T05:16:13.955Z,19.57
2019-05-29T05:18:49.543Z,13.13
2019-05-29T05:21:23.306Z,12.00
2019-05-29T05:23:55.645Z,12.67
2019-05-29T05:26:28.465Z,14.03
2019-05-29T05:29:01.494Z,15.53
2019-05-29T05:31:36.469Z,13.23
2019-05-29T05:34:12.202Z,14.30
2019-05-29T05:36:45.521Z,15.90
2019-05-29T05:39:20.285Z,15.80
2019-05-29T05:41:54.759Z,14.77
2019-05-29T05:44:26.274Z,15.50
2019-05-29T05:46:57.774Z,11.60
2019-05-29T05:49:31.144Z,11.10
2019-05-29T05:52:05.409Z,13.50
2019-05-29T05:54:37.541Z,11.23
2019-05-29T05:57:10.889Z,13.70
2019-05-29T05:59:44.762Z,19.47
2019-05-29T06:02:18.307Z,21.37
2019-05-29T06:04:50.906Z,18.27
2019-05-29T06:07:24.808Z,13.23
2019-05-29T06:09:58.827Z,14.70
2019-05-29T06:12:34.436Z,15.13
2019-05-29T06:15:08.906Z,15.33
2019-05-29T06:18:04.507Z,16.20
2019-05-29T06:20:17.876Z,14.50
2019-05-29T06:22:50.965Z,14.43
2019-05-29T06:25:22.550Z,14.17
2019-05-29T06:27:53.876Z,13.57
2019-05-29T06:30:28.246Z,16.77
2019-05-29T06:32:59.775Z,15.30
2019-05-29T06:35:34.202Z,14.13
2019-05-29T06:38:05.959Z,14.50
2019-05-29T06:40:42.204Z,12.83
2019-05-29T06:43:22.465Z,13.07
2019-05-29T06:45:54.515Z,15.47
2019-05-29T06:48:58.690Z,13.30
2019-05-29T06:51:04.650Z,16.40
2019-05-29T06:53:37.603Z,11.53
2019-05-29T06:56:10.310Z,12.03
2019-05-29T06:58:42.285Z,12.60
2019-05-29T07:01:15.152Z,9.20
2019-05-29T07:03:50.112Z,11.23
2019-05-29T07:06:24.063Z,12.53
2019-05-29T07:08:57.453Z,9.63
2019-05-29T07:11:29.994Z,8.23
2019-05-29T07:14:02.970Z,8.10
2019-05-29T07:16:45.447Z,7.10
2019-05-29T07:19:25.245Z,9.47
2019-05-29T07:21:44.915Z,7.07
2019-05-29T07:24:18.099Z,7.67
2019-05-29T07:26:51.073Z,6.77
2019-05-29T07:29:23.114Z,10.83
2019-05-29T07:31:55.180Z,9.47
2019-05-29T07:34:26.566Z,16.60
2019-05-29T07:37:00.104Z,6.63
2019-05-29T07:39:33.207Z,6.83
2019-05-29T07:42:06.169Z,5.80
2019-05-29T07:44:38.198Z,6.67
2019-05-29T07:47:11.316Z,6.17
2019-05-29T07:49:48.404Z,13.80
2019-05-29T07:52:20.295Z,8.03
2019-05-29T07:54:53.379Z,11.37
2019-05-29T07:57:26.252Z,5.30
2019-05-29T07:59:58.354Z,5.60
2019-05-29T08:02:35.123Z,6.67
2019-05-29T08:05:09.610Z,7.00
2019-05-29T08:07:41.451Z,5.40
2019-05-29T08:10:16.690Z,10.40
2019-05-29T08:12:55.602Z,6.30
2019-05-29T08:15:25.810Z,6.00
2019-05-29T08:18:01.175Z,9.70
2019-05-29T08:20:32.490Z,5.27
2019-05-29T08:23:05.416Z,6.33
2019-05-29T08:25:41.324Z,7.80
2019-05-29T08:28:14.256Z,8.50
2019-05-29T08:30:55.523Z,7.60
2019-05-29T08:33:24.098Z,11.00
2019-05-29T08:36:00.198Z,8.23
2019-05-29T08:38:32.409Z,9.17
2019-05-29T08:41:06.042Z,6.00
2019-05-29T08:43:40.192Z,6.13
2019-05-29T08:46:11.410Z,8.13
2019-05-29T08:48:45.778Z,6.23
2019-05-29T08:51:17.669Z,7.00
2019-05-29T08:53:54.672Z,5.57
2019-05-29T08:56:26.638Z,6.53
2019-05-29T08:59:00.051Z,6.90
2019-05-29T09:01:32.607Z,6.67
2019-05-29T09:04:05.647Z,6.77
2019-05-29T09:06:39.443Z,6.47
2019-05-29T09:09:11.652Z,7.47
2019-05-29T09:11:45.241Z,7.17
2019-05-29T09:14:17.647Z,8.30
2019-05-29T09:16:51.605Z,9.80
2019-05-29T09:19:26.340Z,6.97
2019-05-29T09:21:57.563Z,8.10
2019-05-29T09:24:30.611Z,12.53
2019-05-29T09:27:03.643Z,5.87
2019-05-29T09:29:37.381Z,7.40
2019-05-29T09:32:09.824Z,8.73
2019-05-29T09:34:47.514Z,10.37
2019-05-29T09:37:20.494Z,15.43
2019-05-29T09:39:54.191Z,13.00
2019-05-29T09:42:26.437Z,15.00
2019-05-29T09:44:58.753Z,10.30
2019-05-29T09:47:32.867Z,10.97
2019-05-29T09:50:07.227Z,9.40
2019-05-29T09:52:40.820Z,7.03
2019-05-29T09:55:14.015Z,6.30
2019-05-29T09:57:45.945Z,6.77
2019-05-29T10:00:19.993Z,4.80
2019-05-29T10:02:55.571Z,6.10
2019-05-29T10:05:31.427Z,4.60
2019-05-29T10:08:04.410Z,3.90
2019-05-29T10:10:36.111Z,4.43
2019-05-29T10:13:08.942Z,3.93
2019-05-29T10:15:43.648Z,4.47
2019-05-29T10:18:31.783Z,3.63
2019-05-29T10:20:52.072Z,4.20
2019-05-29T10:23:24.012Z,3.40
2019-05-29T10:25:58.398Z,5.47
2019-05-29T10:28:49.216Z,4.80
2019-05-29T10:31:08.292Z,3.30
2019-05-29T10:33:42.416Z,7.30
2019-05-29T10:36:17.536Z,8.23
2019-05-29T10:38:51.066Z,5.40
2019-05-29T10:41:25.990Z,4.37
2019-05-29T10:44:00.001Z,3.30
2019-05-29T10:46:33.018Z,4.17
2019-05-29T10:49:07.252Z,4.50
2019-05-29T10:51:54.693Z,5.30
2019-05-29T10:54:15.135Z,4.60
2019-05-29T10:56:50.920Z,4.07
2019-05-29T10:59:25.592Z,3.90
2019-05-29T11:01:58.716Z,3.50
2019-05-29T11:04:30.510Z,4.00
2019-05-29T11:07:03.053Z,3.90
2019-05-29T11:09:44.113Z,4.10
2019-05-29T11:12:09.146Z,3.47
2019-05-29T11:14:42.445Z,3.17
2019-05-29T11:17:15.239Z,3.13
2019-05-29T11:19:47.247Z,5.07
2019-05-29T11:22:26.083Z,3.53
2019-05-29T11:24:54.102Z,4.17
2019-05-29T11:27:26.631Z,5.00
2019-05-29T11:30:00.270Z,9.10
2019-05-29T11:32:33.353Z,4.70
2019-05-29T11:35:06.475Z,4.00
2019-05-29T11:37:39.471Z,3.33
2019-05-29T11:40:11.870Z,2.50
2019-05-29T11:42:45.483Z,4.40
2019-05-29T11:45:19.614Z,3.63
2019-05-29T11:47:53.330Z,2.83
2019-05-29T11:50:26.794Z,3.40
2019-05-29T11:52:59.972Z,3.53
2019-05-29T11:55:33.261Z,2.30
2019-05-29T11:58:08.137Z,9.60
2019-05-29T12:00:39.547Z,2.47
2019-05-29T12:03:22.082Z,3.40
2019-05-29T12:05:59.898Z,4.20
2019-05-29T12:08:31.533Z,2.93
2019-05-29T12:11:06.948Z,2.40
2019-05-29T12:13:54.041Z,9.50
2019-05-29T12:16:33.106Z,10.07
2019-05-29T12:19:08.447Z,28.40
2019-05-29T12:21:44.188Z,6.30
2019-05-29T12:24:29.629Z,6.37
2019-05-29T12:27:03.510Z,7.87
2019-05-29T12:29:37.345Z,11.73
2019-05-29T12:32:11.724Z,5.70
2019-05-29T12:34:53.643Z,7.20
2019-05-29T12:37:26.537Z,3.83
2019-05-29T12:40:04.942Z,5.20
2019-05-29T12:42:37.625Z,4.93
2019-05-29T12:45:11.416Z,8.83
2019-05-29T12:47:42.625Z,6.10
2019-05-29T12:50:17.697Z,6.40
2019-05-29T12:52:51.526Z,5.20
2019-05-29T12:55:23.953Z,10.83
2019-05-29T12:57:59.863Z,12.97
2019-05-29T13:00:36.075Z,7.43
2019-05-29T13:03:09.770Z,8.33
2019-05-29T13:05:42.118Z,7.73
2019-05-29T13:08:14.719Z,8.37
2019-05-29T13:10:47.715Z,9.47
2019-05-29T13:13:22.070Z,5.60
2019-05-29T13:15:54.889Z,7.47
2019-05-29T13:18:26.851Z,6.23
2019-05-29T13:20:58.940Z,5.67
2019-05-29T13:23:44.687Z,8.50
2019-05-29T13:26:08.787Z,7.67
2019-05-29T13:28:42.004Z,6.83
2019-05-29T13:31:50.526Z,9.90
2019-05-29T13:34:23.404Z,7.40
2019-05-29T13:37:02.845Z,8.53
2019-05-29T13:39:32.886Z,10.50
2019-05-29T13:42:10.910Z,11.77
2019-05-29T13:44:40.025Z,10.20
2019-05-29T13:47:11.923Z,11.33
2019-05-29T13:49:44.162Z,10.53
2019-05-29T13:52:17.253Z,7.87
2019-05-29T13:54:48.853Z,9.73
2019-05-29T13:57:21.943Z,9.23
2019-05-29T13:59:56.242Z,7.10
2019-05-29T14:02:36.979Z,5.93
2019-05-29T14:05:10.565Z,5.67
2019-05-29T14:07:43.385Z,9.20
2019-05-29T14:10:17.957Z,8.27
2019-05-29T14:12:50.856Z,8.37
2019-05-29T14:15:24.497Z,7.80
2019-05-29T14:17:57.524Z,6.73
2019-05-29T14:20:30.044Z,7.60
2019-05-29T14:23:03.401Z,5.43
2019-05-29T14:25:36.744Z,4.63
2019-05-29T14:28:09.248Z,5.10
2019-05-29T14:30:42.097Z,4.07
2019-05-29T14:33:15.451Z,3.70
2019-05-29T14:35:48.057Z,4.40
2019-05-29T14:38:20.976Z,7.07
2019-05-29T14:40:54.418Z,6.20
2019-05-29T14:43:26.189Z,7.00
2019-05-29T14:46:05.916Z,8.87
2019-05-29T14:48:51.088Z,6.37
2019-05-29T14:51:27.318Z,9.27
2019-05-29T14:54:02.659Z,3.87
2019-05-29T14:56:36.260Z,4.80
2019-05-29T14:59:14.412Z,6.50
2019-05-29T15:01:51.259Z,6.63
2019-05-29T15:04:24.260Z,7.70
2019-05-29T15:06:59.052Z,7.23
2019-05-29T15:09:32.272Z,4.30
2019-05-29T15:12:06.082Z,4.40
2019-05-29T15:14:38.470Z,8.07
2019-05-29T15:17:11.048Z,6.83
2019-05-29T15:19:46.082Z,4.90
2019-05-29T15:22:19.301Z,5.07
2019-05-29T15:25:04.194Z,3.60
2019-05-29T15:27:27.116Z,5.27
2019-05-29T15:30:00.235Z,7.30
2019-05-29T15:32:33.462Z,4.87
2019-05-29T15:35:13.926Z,4.10
2019-05-29T15:37:42.663Z,5.50
2019-05-29T15:40:14.906Z,3.97
2019-05-29T15:42:48.584Z,4.60
2019-05-29T15:45:22.691Z,4.70
2019-05-29T15:47:54.539Z,4.63
2019-05-29T15:50:27.142Z,4.17
2019-05-29T15:52:58.694Z,3.03
2019-05-29T15:55:34.578Z,5.40
2019-05-29T15:58:07.312Z,5.53
2019-05-29T16:00:39.584Z,5.37
2019-05-29T16:03:13.599Z,4.40
2019-05-29T16:05:47.258Z,3.53
2019-05-29T16:08:18.724Z,3.53
2019-05-29T16:10:52.494Z,12.20
2019-05-29T16:13:25.625Z,7.10
2019-05-29T16:15:58.633Z,6.67
2019-05-29T16:18:32.468Z,6.40
2019-05-29T16:21:07.013Z,5.87
2019-05-29T16:23:40.585Z,5.10
2019-05-29T16:26:15.152Z,3.83
2019-05-29T16:28:52.036Z,9.37
2019-05-29T16:31:24.606Z,7.67
2019-05-29T16:33:56.804Z,7.57
2019-05-29T16:36:30.717Z,11.93
2019-05-29T16:39:05.514Z,6.33
2019-05-29T16:41:39.720Z,6.50
2019-05-29T16:44:13.978Z,7.57
2019-05-29T16:46:47.688Z,4.53
2019-05-29T16:49:21.296Z,6.33
2019-05-29T16:51:54.319Z,6.80
2019-05-29T16:54:27.252Z,3.70
2019-05-29T16:57:01.313Z,5.07
2019-05-29T16:59:33.066Z,8.40
2019-05-29T17:02:07.051Z,4.13
2019-05-29T17:04:38.882Z,5.37
2019-05-29T17:07:14.151Z,4.90
2019-05-29T17:09:47.908Z,4.53
2019-05-29T17:12:22.550Z,6.03
2019-05-29T17:14:56.579Z,7.03
2019-05-29T17:17:30.467Z,8.30
2019-05-29T17:20:03.702Z,8.73
2019-05-29T17:22:36.839Z,3.97
2019-05-29T17:25:10.093Z,18.10
2019-05-29T17:27:43.029Z,64.17
2019-05-29T17:30:21.020Z,77.30
2019-05-29T17:32:56.601Z,46.83
2019-05-29T17:35:27.967Z,26.87
2019-05-29T17:38:01.047Z,14.73
2019-05-29T17:40:35.657Z,7.40
2019-05-29T17:43:07.043Z,8.30
2019-05-29T17:45:40.718Z,9.00
2019-05-29T17:48:15.450Z,6.73
2019-05-29T17:50:49.221Z,6.63
2019-05-29T17:53:24.247Z,7.03
2019-05-29T17:55:58.767Z,6.93
2019-05-29T17:58:32.177Z,4.73
2019-05-29T18:01:04.996Z,3.70
2019-05-29T18:03:39.005Z,5.00
2019-05-29T18:06:16.202Z,6.10
2019-05-29T18:08:51.574Z,5.70
2019-05-29T18:11:27.574Z,5.27
2019-05-29T18:14:05.019Z,4.90
2019-05-29T18:16:34.092Z,5.37
2019-05-29T18:19:06.299Z,6.23
2019-05-29T18:21:39.079Z,7.30
2019-05-29T18:24:12.186Z,9.50
2019-05-29T18:26:47.354Z,4.97
2019-05-29T18:29:20.144Z,5.13
2019-05-29T18:31:55.805Z,3.30
2019-05-29T18:34:27.466Z,5.03
2019-05-29T18:37:00.593Z,7.90
2019-05-29T18:39:32.576Z,6.83
2019-05-29T18:42:04.353Z,4.47
2019-05-29T18:44:37.196Z,4.00
2019-05-29T18:47:12.218Z,5.03
2019-05-29T18:49:46.211Z,4.93
2019-05-29T18:52:22.012Z,7.13
2019-05-29T18:54:54.427Z,5.70
2019-05-29T18:57:27.143Z,3.93
2019-05-29T19:00:00.551Z,3.60
2019-05-29T19:02:33.300Z,3.27
2019-05-29T19:05:08.617Z,2.60
2019-05-29T19:07:42.425Z,9.83
2019-05-29T19:10:15.666Z,3.80
2019-05-29T19:12:47.959Z,3.20
2019-05-29T19:15:20.015Z,6.47
2019-05-29T19:17:53.351Z,8.10
2019-05-29T19:20:28.657Z,10.90
2019-05-29T19:23:00.589Z,7.60
2019-05-29T19:25:35.786Z,4.00
2019-05-29T19:28:09.625Z,6.00
2019-05-29T19:30:42.589Z,4.80
2019-05-29T19:33:15.635Z,3.63
2019-05-29T19:35:48.825Z,6.53
2019-05-29T19:38:21.567Z,5.53
2019-05-29T19:40:55.265Z,3.20
2019-05-29T19:43:28.256Z,6.10
2019-05-29T19:46:02.075Z,6.40
2019-05-29T19:48:35.104Z,3.73
2019-05-29T19:51:06.632Z,4.70
2019-05-29T19:53:39.633Z,4.43
2019-05-29T19:56:12.675Z,7.10
2019-05-29T19:58:49.329Z,4.23
2019-05-29T20:01:32.757Z,5.20
2019-05-29T20:03:58.470Z,5.27
2019-05-29T20:06:33.097Z,11.13
2019-05-29T20:09:08.582Z,5.00
2019-05-29T20:11:44.303Z,5.23
2019-05-29T20:14:29.559Z,5.47
2019-05-29T20:17:19.328Z,4.07
2019-05-29T20:19:54.107Z,4.63
2019-05-29T20:22:28.547Z,7.43
2019-05-29T20:25:02.658Z,8.77
2019-05-29T20:27:38.548Z,6.67
2019-05-29T20:30:17.251Z,4.33
2019-05-29T20:32:48.881Z,4.90
2019-05-29T20:35:23.353Z,4.87
2019-05-29T20:37:56.454Z,7.00
2019-05-29T20:40:27.744Z,4.30
2019-05-29T20:43:01.685Z,7.10
2019-05-29T20:45:35.546Z,10.20
2019-05-29T20:48:10.744Z,7.30
2019-05-29T20:50:43.448Z,4.40
2019-05-29T20:53:16.809Z,5.17
2019-05-29T20:55:49.472Z,4.23
2019-05-29T20:58:24.873Z,4.77
2019-05-29T21:00:57.920Z,11.23
2019-05-29T21:03:32.178Z,8.10
2019-05-29T21:06:04.836Z,5.07
2019-05-29T21:08:37.080Z,7.57
2019-05-29T21:11:09.894Z,5.30
2019-05-29T21:13:43.925Z,6.83
2019-05-29T21:16:18.626Z,7.13
2019-05-29T21:18:51.663Z,7.60
2019-05-29T21:21:26.064Z,6.33
2019-05-29T21:23:59.157Z,8.93
2019-05-29T21:26:32.842Z,8.70
2019-05-29T21:29:07.069Z,4.63
2019-05-29T21:31:40.156Z,6.10
2019-05-29T21:34:13.065Z,7.13
2019-05-29T21:36:47.873Z,8.90
2019-05-29T21:39:22.741Z,8.57
2019-05-29T21:41:55.212Z,5.43
2019-05-29T21:44:28.084Z,4.50
2019-05-29T21:47:00.724Z,5.63
2019-05-29T21:49:50.786Z,7.80
2019-05-29T21:52:23.158Z,6.53
2019-05-29T21:54:59.257Z,9.30
2019-05-29T21:57:32.347Z,5.50
2019-05-29T22:00:09.889Z,8.27
2019-05-29T22:02:42.334Z,11.57
2019-05-29T22:05:16.840Z,6.33
2019-05-29T22:07:49.190Z,4.80
2019-05-29T22:10:22.135Z,4.60
2019-05-29T22:12:58.505Z,4.17
2019-05-29T22:15:31.913Z,10.20
2019-05-29T22:18:05.416Z,7.27
2019-05-29T22:20:37.273Z,4.97
2019-05-29T22:23:10.932Z,5.33
2019-05-29T22:25:43.583Z,4.60
2019-05-29T22:28:17.316Z,5.27
2019-05-29T22:30:51.237Z,4.63
2019-05-29T22:33:23.272Z,6.97
2019-05-29T22:35:55.737Z,7.90
2019-05-29T22:38:27.786Z,7.27
2019-05-29T22:41:01.993Z,9.10
2019-05-29T22:43:34.403Z,9.73
2019-05-29T22:46:07.259Z,6.43
2019-05-29T22:48:41.251Z,5.70
2019-05-29T22:51:14.418Z,6.80
2019-05-29T22:53:49.869Z,5.70
2019-05-29T22:56:25.391Z,12.23
2019-05-29T22:59:00.116Z,5.73
2019-05-29T23:01:31.475Z,6.30
2019-05-29T23:04:06.229Z,7.63
2019-05-29T23:06:39.085Z,6.53
2019-05-29T23:09:10.406Z,7.70
2019-05-29T23:11:43.684Z,7.33
2019-05-29T23:14:16.788Z,8.03
2019-05-29T23:16:50.358Z,7.17
2019-05-29T23:19:22.689Z,8.87
2019-05-29T23:21:58.659Z,5.97
2019-05-29T23:24:30.590Z,7.70
2019-05-29T23:27:04.667Z,12.23
2019-05-29T23:29:48.416Z,8.97
2019-05-29T23:32:12.162Z,10.67
2019-05-29T23:34:43.781Z,8.63
2019-05-29T23:37:16.675Z,6.90
2019-05-29T23:39:49.658Z,6.87
2019-05-29T23:42:21.846Z,12.37
2019-05-29T23:44:55.846Z,5.97
2019-05-29T23:47:27.666Z,9.47
2019-05-29T23:50:02.852Z,9.60
2019-05-29T23:52:35.059Z,9.23
2019-05-29T23:55:08.426Z,9.73
2019-05-29T23:57:39.810Z,6.70
